createdAt,value
2022-09-20T00:02:42.045Z,7.58
2022-09-20T00:08:38.873Z,7.58
2022-09-20T00:11:49.719Z,7.61
2022-09-20T00:14:35.684Z,7.61
2022-09-20T00:17:46.726Z,7.60
2022-09-20T00:20:32.296Z,7.60
2022-09-20T00:23:18.459Z,7.59
2022-09-20T00:26:04.754Z,7.58
2022-09-20T00:28:51.978Z,7.57
2022-09-20T00:31:40.244Z,7.56
2022-09-20T00:34:44.285Z,7.57
2022-09-20T00:37:29.679Z,7.57
2022-09-20T00:40:20.612Z,7.55
2022-09-20T00:43:06.792Z,7.54
2022-09-20T00:45:52.565Z,7.51
2022-09-20T00:48:37.983Z,7.49
2022-09-20T00:51:29.582Z,7.47
2022-09-20T00:54:20.522Z,7.44
2022-09-20T00:57:06.601Z,7.42
2022-09-20T00:59:53.172Z,7.39
2022-09-20T01:02:43.340Z,7.37
2022-09-20T01:05:29.268Z,7.35
2022-09-20T01:08:15.011Z,7.33
2022-09-20T01:11:01.195Z,7.31
2022-09-20T01:13:46.702Z,7.30
2022-09-20T01:16:34.043Z,7.28
2022-09-20T01:20:06.137Z,7.26
2022-09-20T01:23:19.499Z,7.25
2022-09-20T01:26:23.275Z,7.23
2022-09-20T01:29:36.644Z,7.22
2022-09-20T01:32:27.193Z,7.24
2022-09-20T01:35:14.439Z,7.26
2022-09-20T01:38:23.164Z,7.25
2022-09-20T01:41:15.229Z,7.27
2022-09-20T01:44:42.772Z,7.28
2022-09-20T01:48:05.971Z,7.28
2022-09-20T01:50:57.272Z,7.26
2022-09-20T01:54:17.134Z,7.24
2022-09-20T01:57:25.027Z,7.23
2022-09-20T02:00:20.363Z,7.18
2022-09-20T02:03:05.911Z,7.14
2022-09-20T02:05:59.761Z,7.12
2022-09-20T02:12:13.706Z,7.10
2022-09-20T02:15:17.714Z,7.10
2022-09-20T02:18:18.608Z,7.10
2022-09-20T02:21:25.880Z,7.12
2022-09-20T02:24:23.221Z,7.14
2022-09-20T02:27:32.344Z,7.16
2022-09-20T02:30:26.876Z,7.18
2022-09-20T02:33:35.968Z,7.20
2022-09-20T02:36:40.004Z,7.23
2022-09-20T02:39:37.018Z,7.25
2022-09-20T02:42:34.977Z,7.27
2022-09-20T02:45:35.361Z,7.29
2022-09-20T02:48:28.004Z,7.33
2022-09-20T02:51:51.939Z,7.34
2022-09-20T02:55:04.659Z,7.37
2022-09-20T02:58:15.625Z,7.38
2022-09-20T03:01:07.093Z,7.42
2022-09-20T03:04:33.341Z,7.43
2022-09-20T03:07:42.031Z,7.43
2022-09-20T03:11:03.120Z,7.44
2022-09-20T03:14:03.532Z,7.45
2022-09-20T03:16:52.789Z,7.46
2022-09-20T03:20:09.256Z,7.48
2022-09-20T03:23:14.911Z,7.49
2022-09-20T03:26:22.446Z,7.51
2022-09-20T03:29:23.564Z,7.52
2022-09-20T03:32:29.251Z,7.55
2022-09-20T03:35:24.375Z,7.55
2022-09-20T03:38:31.612Z,7.55
2022-09-20T03:41:23.341Z,7.55
2022-09-20T03:44:28.319Z,7.55
2022-09-20T03:47:36.834Z,7.57
2022-09-20T03:50:37.077Z,7.59
2022-09-20T03:53:41.479Z,7.59
2022-09-20T03:56:45.538Z,7.60
2022-09-20T03:59:56.475Z,7.61
2022-09-20T04:03:07.003Z,7.60
2022-09-20T04:06:01.679Z,7.61
2022-09-20T04:09:05.899Z,7.61
2022-09-20T04:12:29.750Z,7.63
2022-09-20T04:15:40.399Z,7.64
2022-09-20T04:18:47.695Z,7.64
2022-09-20T04:21:42.405Z,7.64
2022-09-20T04:25:05.863Z,7.64
2022-09-20T04:27:58.638Z,7.64
2022-09-20T04:30:44.283Z,7.65
2022-09-20T04:33:35.792Z,7.65
2022-09-20T04:37:06.222Z,7.65
2022-09-20T04:40:21.181Z,7.64
2022-09-20T04:43:40.885Z,7.62
2022-09-20T04:46:45.447Z,7.62
2022-09-20T04:50:06.204Z,7.61
2022-09-20T04:53:47.146Z,7.61
2022-09-20T04:56:59.491Z,7.60
2022-09-20T04:59:46.136Z,7.61
2022-09-20T05:02:57.654Z,7.61
2022-09-20T05:06:04.913Z,7.61
2022-09-20T05:09:13.710Z,7.61
2022-09-20T05:12:21.608Z,7.62
2022-09-20T05:15:53.628Z,7.63
2022-09-20T05:18:42.136Z,7.63
2022-09-20T05:22:03.886Z,7.62
2022-09-20T05:25:07.452Z,7.64
2022-09-20T05:28:10.304Z,7.67
2022-09-20T05:31:03.093Z,7.68
2022-09-20T05:33:51.680Z,7.70
2022-09-20T05:36:52.009Z,7.72
2022-09-20T05:39:42.012Z,7.76
2022-09-20T05:42:54.619Z,7.79
2022-09-20T05:46:34.481Z,7.82
2022-09-20T05:49:27.015Z,7.86
2022-09-20T05:52:32.196Z,7.89
2022-09-20T05:55:56.075Z,7.93
2022-09-20T05:59:00.613Z,7.98
2022-09-20T06:02:08.334Z,7.99
2022-09-20T06:05:24.626Z,7.99
2022-09-20T06:08:35.396Z,8.00
2022-09-20T06:11:37.100Z,8.00
2022-09-20T06:14:43.752Z,8.00
2022-09-20T06:18:07.768Z,8.01
2022-09-20T06:21:18.123Z,8.03
2022-09-20T06:24:18.184Z,8.06
2022-09-20T06:27:10.869Z,8.09
2022-09-20T06:30:01.404Z,8.13
2022-09-20T06:33:14.880Z,8.15
2022-09-20T06:36:34.192Z,8.19
2022-09-20T06:39:51.808Z,8.23
2022-09-20T06:42:39.178Z,8.30
2022-09-20T06:45:24.573Z,8.32
2022-09-20T06:48:11.723Z,8.36
2022-09-20T06:50:57.288Z,8.41
2022-09-20T06:53:42.666Z,8.43
2022-09-20T06:56:31.369Z,8.46
2022-09-20T06:59:17.466Z,8.47
2022-09-20T07:02:03.334Z,8.49
2022-09-20T07:04:48.673Z,8.53
2022-09-20T07:07:33.981Z,8.54
2022-09-20T07:10:19.605Z,8.55
2022-09-20T07:13:05.933Z,8.56
2022-09-20T07:15:51.424Z,8.57
2022-09-20T07:18:37.209Z,8.59
2022-09-20T07:21:22.990Z,8.65
2022-09-20T07:24:08.871Z,8.71
2022-09-20T07:26:59.633Z,8.75
2022-09-20T07:29:46.264Z,8.78
2022-09-20T07:32:31.996Z,8.81
2022-09-20T07:35:17.855Z,8.83
2022-09-20T07:38:03.327Z,8.85
2022-09-20T07:40:57.706Z,8.87
2022-09-20T07:43:42.842Z,8.90
2022-09-20T07:46:28.410Z,8.95
2022-09-20T07:49:13.889Z,9.01
2022-09-20T07:51:59.705Z,9.06
2022-09-20T07:54:46.082Z,9.09
2022-09-20T07:57:35.113Z,9.09
2022-09-20T08:00:21.092Z,9.13
2022-09-20T08:03:06.947Z,9.22
2022-09-20T08:05:59.188Z,9.30
2022-09-20T08:08:45.450Z,9.36
2022-09-20T08:11:31.239Z,9.44
2022-09-20T08:14:18.505Z,9.46
2022-09-20T08:17:03.812Z,9.47
2022-09-20T08:19:50.859Z,9.55
2022-09-20T08:22:36.252Z,9.68
2022-09-20T08:25:21.891Z,9.76
2022-09-20T08:28:07.657Z,9.90
2022-09-20T08:30:53.240Z,10.03
2022-09-20T08:33:39.611Z,10.13
2022-09-20T08:36:27.560Z,10.10
2022-09-20T08:42:33.914Z,10.20
2022-09-20T08:45:41.633Z,10.30
2022-09-20T08:48:33.853Z,10.36
2022-09-20T08:51:23.394Z,10.39
2022-09-20T08:54:16.118Z,10.39
2022-09-20T08:57:07.121Z,10.40
2022-09-20T08:59:52.976Z,10.24
2022-09-20T09:02:39.148Z,10.24
2022-09-20T09:05:40.700Z,10.25
2022-09-20T09:08:37.757Z,10.28
2022-09-20T09:11:24.072Z,10.33
2022-09-20T09:14:41.952Z,10.39
2022-09-20T09:17:30.356Z,10.39
2022-09-20T09:20:21.788Z,10.41
2022-09-20T09:23:09.302Z,10.43
2022-09-20T09:25:55.956Z,10.42
2022-09-20T09:28:41.528Z,10.39
2022-09-20T09:31:27.378Z,10.37
2022-09-20T09:34:31.272Z,10.37
2022-09-20T09:37:31.198Z,10.47
2022-09-20T09:40:19.165Z,10.64
2022-09-20T09:43:04.802Z,10.83
2022-09-20T09:45:50.567Z,10.97
2022-09-20T09:48:38.585Z,11.04
2022-09-20T09:51:26.565Z,11.10
2022-09-20T09:54:19.899Z,11.14
2022-09-20T09:57:08.801Z,11.14
2022-09-20T10:00:18.522Z,11.13
2022-09-20T10:03:22.201Z,10.94
2022-09-20T10:06:17.188Z,10.76
2022-09-20T10:09:21.690Z,10.60
2022-09-20T10:12:30.184Z,10.53
2022-09-20T10:15:30.896Z,10.51
2022-09-20T10:18:22.643Z,10.37
2022-09-20T10:21:17.285Z,10.33
2022-09-20T10:24:09.001Z,10.30
2022-09-20T10:27:19.421Z,10.28
2022-09-20T10:35:48.939Z,10.37
2022-09-20T10:38:41.646Z,10.37
2022-09-20T10:42:00.649Z,10.48
2022-09-20T10:50:57.607Z,10.95
2022-09-20T10:53:55.980Z,11.13
2022-09-20T10:59:37.681Z,11.51
2022-09-20T11:02:36.190Z,11.65
2022-09-20T11:05:50.468Z,11.79
2022-09-20T11:08:35.389Z,11.87
2022-09-20T11:11:27.280Z,11.93
2022-09-20T11:14:32.724Z,12.00
2022-09-20T11:20:26.370Z,12.47
2022-09-20T11:23:21.375Z,12.64
2022-09-20T11:26:16.983Z,12.70
2022-09-20T11:29:32.458Z,12.41
2022-09-20T12:04:36.013Z,10.16
2022-09-20T12:07:44.603Z,10.06
2022-09-20T12:10:37.728Z,10.09
2022-09-20T12:13:26.402Z,10.08
2022-09-20T12:16:39.590Z,10.03
2022-09-20T12:19:34.230Z,10.04
2022-09-20T12:22:28.660Z,10.02
2022-09-20T12:25:38.740Z,10.18
2022-09-20T12:31:34.459Z,10.48
2022-09-20T12:34:20.195Z,10.53
2022-09-20T12:37:10.400Z,10.78
2022-09-20T12:39:56.722Z,10.96
2022-09-20T12:42:43.200Z,11.30
2022-09-20T12:45:29.035Z,11.63
2022-09-20T12:48:20.011Z,11.87
2022-09-20T12:51:33.647Z,11.99
2022-09-20T12:54:19.168Z,12.17
2022-09-20T12:57:19.175Z,12.40
2022-09-20T13:00:07.486Z,12.62
2022-09-20T13:02:52.925Z,12.87
2022-09-20T13:05:40.647Z,13.09
2022-09-20T13:08:30.028Z,13.31
2022-09-20T13:11:23.696Z,13.47
2022-09-20T13:14:23.823Z,13.67
2022-09-20T13:17:22.835Z,13.84
2022-09-20T13:20:21.012Z,13.94
2022-09-20T13:23:06.795Z,13.40
2022-09-20T13:25:52.810Z,13.69
2022-09-20T13:28:49.676Z,13.99
2022-09-20T13:47:22.830Z,11.80
2022-09-20T13:50:20.874Z,11.55
2022-09-20T13:53:39.381Z,11.45
2022-09-20T13:56:28.840Z,11.38
2022-09-20T13:59:19.696Z,11.24
2022-09-20T14:02:05.774Z,10.95
2022-09-20T14:04:55.539Z,10.81
2022-09-20T14:07:45.430Z,10.79
2022-09-20T14:19:49.689Z,10.64
2022-09-20T14:25:33.630Z,10.90
2022-09-20T14:28:28.997Z,11.21
2022-09-20T14:31:21.409Z,11.50
2022-09-20T14:34:13.027Z,11.79
2022-09-20T14:37:12.848Z,11.96
2022-09-20T14:40:16.242Z,12.20
2022-09-20T14:43:06.283Z,12.45
2022-09-20T14:46:03.297Z,12.70
2022-09-20T14:48:49.025Z,12.88
2022-09-20T14:51:34.309Z,13.02
2022-09-20T14:54:30.145Z,13.12
2022-09-20T14:57:15.557Z,13.26
2022-09-20T15:00:08.194Z,13.31
2022-09-20T15:02:54.103Z,13.23
2022-09-20T15:05:39.742Z,12.99
2022-09-20T15:08:25.597Z,12.42
2022-09-20T15:11:16.120Z,12.03
2022-09-20T15:14:01.578Z,11.78
2022-09-20T15:16:47.378Z,11.47
2022-09-20T15:19:34.438Z,11.08
2022-09-20T15:41:06.132Z,9.94
2022-09-20T16:11:58.881Z,10.33
2022-09-20T16:14:44.970Z,10.32
2022-09-20T16:17:49.446Z,10.27
2022-09-20T16:20:36.600Z,10.15
2022-09-20T16:23:26.045Z,10.12
2022-09-20T16:29:02.751Z,10.22
2022-09-20T16:31:50.485Z,10.25
2022-09-20T16:34:36.985Z,10.21
2022-09-20T16:37:23.854Z,10.14
2022-09-20T16:40:11.403Z,10.14
2022-09-20T16:42:58.676Z,10.10
2022-09-20T16:45:44.831Z,10.04
2022-09-20T16:48:32.051Z,10.02
2022-09-20T16:51:18.105Z,9.95
2022-09-20T16:54:06.946Z,9.87
2022-09-20T16:56:53.486Z,9.83
2022-09-20T16:59:39.345Z,9.78
2022-09-20T17:02:25.279Z,9.75
2022-09-20T17:05:11.910Z,9.70
2022-09-20T17:07:58.142Z,9.64
2022-09-20T17:10:44.750Z,9.53
2022-09-20T17:13:33.601Z,9.41
2022-09-20T17:16:30.277Z,9.25
2022-09-20T17:19:18.795Z,9.17
2022-09-20T17:22:06.799Z,9.15
2022-09-20T17:24:52.807Z,9.15
2022-09-20T17:27:39.260Z,9.14
2022-09-20T17:30:24.704Z,9.11
2022-09-20T17:33:11.419Z,9.03
2022-09-20T17:35:59.939Z,8.96
2022-09-20T17:38:46.398Z,8.95
2022-09-20T17:41:33.831Z,8.93
2022-09-20T17:44:19.490Z,8.91
2022-09-20T17:47:04.743Z,8.85
2022-09-20T17:49:50.184Z,8.81
2022-09-20T17:52:36.400Z,8.76
2022-09-20T17:55:22.246Z,8.74
2022-09-20T17:58:07.887Z,8.69
2022-09-20T18:00:58.424Z,8.63
2022-09-20T18:03:48.902Z,8.59
2022-09-20T18:06:38.042Z,8.55
2022-09-20T18:09:25.706Z,8.51
2022-09-20T18:12:16.647Z,8.46
2022-09-20T18:15:04.423Z,8.43
2022-09-20T18:17:54.318Z,8.39
2022-09-20T18:20:40.013Z,8.35
2022-09-20T18:23:25.506Z,8.29
2022-09-20T18:26:22.374Z,8.27
2022-09-20T18:29:12.654Z,8.22
2022-09-20T18:31:59.945Z,8.18
2022-09-20T18:34:45.230Z,8.12
2022-09-20T18:37:31.796Z,8.09
2022-09-20T18:40:17.384Z,8.04
2022-09-20T18:43:04.828Z,7.97
2022-09-20T18:45:54.722Z,7.93
2022-09-20T18:48:40.343Z,7.89
2022-09-20T18:51:30.502Z,7.85
2022-09-20T18:54:16.245Z,7.82
2022-09-20T18:57:02.229Z,7.74
2022-09-20T18:59:54.490Z,7.69
2022-09-20T19:02:54.685Z,7.65
2022-09-20T19:06:07.221Z,7.60
2022-09-20T19:09:26.730Z,7.55
2022-09-20T19:12:46.539Z,7.49
2022-09-20T19:15:57.553Z,7.48
2022-09-20T19:19:27.542Z,7.46
2022-09-20T19:22:34.673Z,7.38
2022-09-20T19:25:29.145Z,7.32
2022-09-20T19:28:16.010Z,7.28
2022-09-20T19:31:02.344Z,7.26
2022-09-20T19:33:48.571Z,7.23
2022-09-20T19:36:48.638Z,7.21
2022-09-20T19:39:34.354Z,7.15
2022-09-20T19:42:29.286Z,7.09
2022-09-20T19:45:32.132Z,7.06
2022-09-20T19:48:39.152Z,7.02
2022-09-20T19:51:26.220Z,6.96
2022-09-20T19:54:12.966Z,6.91
2022-09-20T19:56:59.489Z,6.90
2022-09-20T19:59:46.352Z,6.87
2022-09-20T20:02:32.060Z,6.86
2022-09-20T20:05:20.544Z,6.80
2022-09-20T20:08:19.470Z,6.77
2022-09-20T20:11:28.279Z,6.73
2022-09-20T20:14:16.621Z,6.72
2022-09-20T20:17:02.129Z,6.62
2022-09-20T20:19:53.979Z,6.57
2022-09-20T20:23:01.577Z,6.54
2022-09-20T20:25:55.130Z,6.48
2022-09-20T20:28:41.011Z,6.42
2022-09-20T20:31:26.619Z,6.39
2022-09-20T20:34:16.188Z,6.38
2022-09-20T20:37:01.613Z,6.46
2022-09-20T20:39:47.002Z,6.48
2022-09-20T20:42:32.592Z,6.56
2022-09-20T20:45:19.758Z,6.63
2022-09-20T20:48:05.003Z,6.67
2022-09-20T20:50:59.869Z,6.69
2022-09-20T20:53:48.564Z,6.67
2022-09-20T20:56:34.112Z,6.58
2022-09-20T20:59:19.815Z,6.49
2022-09-20T21:02:07.971Z,6.45
2022-09-20T21:04:53.457Z,6.44
2022-09-20T21:07:38.926Z,6.43
2022-09-20T21:10:24.505Z,6.43
2022-09-20T21:13:11.049Z,6.42
2022-09-20T21:16:08.879Z,6.40
2022-09-20T21:18:54.786Z,6.37
2022-09-20T21:21:44.847Z,6.34
2022-09-20T21:24:30.052Z,6.32
2022-09-20T21:27:15.733Z,6.30
2022-09-20T21:30:01.659Z,6.26
2022-09-20T21:32:47.137Z,6.24
2022-09-20T21:35:32.985Z,6.17
2022-09-20T21:38:18.627Z,6.12
2022-09-20T21:41:18.509Z,6.09
2022-09-20T21:44:05.991Z,6.06
2022-09-20T21:46:51.444Z,6.03
2022-09-20T21:49:36.952Z,6.00
2022-09-20T21:52:22.375Z,6.00
2022-09-20T21:55:10.715Z,5.99
2022-09-20T21:57:56.317Z,5.98
2022-09-20T22:00:41.747Z,5.97
2022-09-20T22:03:39.164Z,5.93
2022-09-20T22:06:32.447Z,5.92
2022-09-20T22:09:19.274Z,5.85
2022-09-20T22:12:04.816Z,5.82
2022-09-20T22:14:50.302Z,5.82
2022-09-20T22:17:35.621Z,5.78
2022-09-20T22:20:21.156Z,5.77
2022-09-20T22:23:06.596Z,5.75
2022-09-20T22:26:01.674Z,5.72
2022-09-20T22:28:51.689Z,5.69
2022-09-20T22:31:44.725Z,5.64
2022-09-20T22:34:30.020Z,5.59
2022-09-20T22:37:17.494Z,5.56
2022-09-20T22:40:02.926Z,5.50
2022-09-20T22:42:48.330Z,5.46
2022-09-20T22:45:33.623Z,5.44
2022-09-20T22:48:19.283Z,5.40
2022-09-20T22:51:14.158Z,5.37
2022-09-20T22:54:00.796Z,5.34
2022-09-20T22:56:46.368Z,5.27
2022-09-20T22:59:31.835Z,5.22
2022-09-20T23:02:17.288Z,5.19
2022-09-20T23:05:02.895Z,5.13
2022-09-20T23:07:48.963Z,5.09
2022-09-20T23:10:34.684Z,5.05
2022-09-20T23:13:19.928Z,4.98
2022-09-20T23:16:18.811Z,4.96
2022-09-20T23:19:06.788Z,4.94
2022-09-20T23:21:51.892Z,4.91
2022-09-20T23:24:37.537Z,4.87
2022-09-20T23:27:22.919Z,4.80
2022-09-20T23:30:08.876Z,4.76
2022-09-20T23:32:54.587Z,4.73
2022-09-20T23:35:44.642Z,4.69
2022-09-20T23:38:30.150Z,4.65
2022-09-20T23:41:18.955Z,4.62
2022-09-20T23:44:06.731Z,4.59
2022-09-20T23:46:52.485Z,4.55
2022-09-20T23:49:38.044Z,4.54
2022-09-20T23:52:23.513Z,4.49
2022-09-20T23:55:09.051Z,4.46
2022-09-20T23:57:57.450Z,4.44
